Home > Products > Valid Products > TAF

000
FTUS45 KTFX 251700
TAFLWT
TAF
KLWT 251734Z 2518/2618 24022G32KT P6SM SKC
     FM260300 26007KT P6SM SKC=



000
FTUS45 KTFX 251700
TAFHLN
TAF
KHLN 251734Z 2518/2618 28018G27KT P6SM SKC
     FM260300 27008KT P6SM SKC=



000
FTUS45 KTFX 251700
TAFGTF
TAF
KGTF 251734Z 2518/2618 22022G30KT P6SM SKC
     FM260200 26017KT P6SM SKC
     FM260600 25008KT P6SM SKC=



000
FTUS45 KTFX 251700
TAFCTB
TAF
KCTB 251734Z 2518/2618 26028G40KT P6SM FEW150
     FM260300 26016KT P6SM SKC
     FM260600 25007KT P6SM SKC=



000
FTUS45 KTFX 251700
TAFBZN
TAF
KBZN 251734Z 2518/2618 34005KT P6SM SKC
     FM252000 28012G21KT P6SM SKC
     FM260200 VRB05KT P6SM SKC=



000
FTUS45 KTFX 251700
TAFHVR
TAF
KHVR 251734Z 2518/2618 25025G37KT P6SM FEW120
     FM260200 26017G24KT P6SM FEW150
     FM260600 28010KT P6SM FEW150=



000
FTUS45 KTFX 251100
TAFHLN
TAF
KHLN 251125Z 2512/2612 VRB04KT P6SM SKC
     FM251700 28016G27KT P6SM SKC
     FM260300 28011KT P6SM SKC
     FM260900 VRB03KT P6SM SKC=



000
FTUS45 KTFX 251100
TAFLWT
TAF
KLWT 251125Z 2512/2612 24011KT P6SM SKC
     FM251600 27015G25KT P6SM SKC
     FM260300 26007KT P6SM SKC=



000
FTUS45 KTFX 251100
TAFCTB
TAF
KCTB 251125Z 2512/2612 25018G24KT P6SM SKC
     FM251600 26028G35KT P6SM FEW200
     FM260300 25016KT P6SM SKC=



000
FTUS45 KTFX 251100
TAFBZN
TAF
KBZN 251125Z 2512/2612 16006KT P6SM SKC
     FM252000 28011G18KT P6SM SKC
     FM260200 VRB03KT P6SM SKC=



000
FTUS45 KTFX 251100
TAFHVR
TAF
KHVR 251125Z 2512/2612 23017G24KT P6SM SKC
     FM252000 26022G31KT P6SM FEW200
     FM260300 28011KT P6SM FEW200=



000
FTUS45 KTFX 251100
TAFGTF
TAF
KGTF 251125Z 2512/2612 23020G30KT P6SM SKC
     FM260100 27017KT P6SM SKC
     FM260600 25008KT P6SM SKC=



000
FTUS45 KTFX 250700 AAA
TAFCTB
TAF AMD
KCTB 250709Z 2507/2606 23014G22KT P6SM SKC
     FM251800 25028G35KT P6SM SCT180
     FM260300 25018KT P6SM SKC=



000
FTUS45 KTFX 250700 AAA
TAFHLN
TAF AMD
KHLN 250708Z 2507/2606 26011G19KT P6SM SKC
     FM252000 27016G27KT P6SM SKC
     FM260300 VRB06KT P6SM SKC=



000
FTUS45 KTFX 250500
TAFHVR
TAF
KHVR 250520Z 2506/2606 24011KT P6SM SKC
     FM251900 26020G32KT P6SM SKC
     FM260300 25010KT P6SM SKC=



000
FTUS45 KTFX 250500
TAFGTF
TAF
KGTF 250520Z 2506/2606 23012KT P6SM SKC
     FM251900 25020G32KT P6SM SKC
     FM260300 26006KT P6SM SKC=



000
FTUS45 KTFX 250500
TAFCTB
TAF
KCTB 250520Z 2506/2606 21015G25KT P6SM SKC
     FM251800 25028G35KT P6SM SCT180
     FM260300 25018KT P6SM SKC=



000
FTUS45 KTFX 250500
TAFBZN
TAF
KBZN 250520Z 2506/2606 VRB06KT P6SM SKC
     FM252000 28012KT P6SM SKC
     FM260200 VRB06KT P6SM SKC=



000
FTUS45 KTFX 250500
TAFLWT
TAF
KLWT 250520Z 2506/2606 30006KT P6SM SCT150
     FM252000 27015G25KT P6SM SKC
     FM260300 VRB06KT P6SM SKC=



000
FTUS45 KTFX 250500
TAFHLN
TAF
KHLN 250520Z 2506/2606 23006KT P6SM SKC
     FM252000 27012G22KT P6SM SKC
     FM260300 VRB06KT P6SM SKC=



000
FTUS45 KTFX 250300 AAB
TAFHVR
TAF AMD
KHVR 250305Z 2503/2524 27018G30KT P6SM SCT150
     FM250500 25014KT P6SM SKC
     FM251900 26020G32KT P6SM SKC=



000
FTUS45 KTFX 250300 AAA
TAFGTF
TAF AMD
KGTF 250304Z 2503/2524 28015G25KT P6SM SKC
     FM250500 23012KT P6SM SKC
     FM251900 25020G32KT P6SM SKC=



000
FTUS45 KTFX 250200 AAA
TAFCTB
TAF AMD
KCTB 250229Z 2502/2524 25030G45KT P6SM SCT180
     FM250400 25018G30KT P6SM SKC
     FM251800 25028G35KT P6SM SCT180=



000
FTUS45 KTFX 250000 AAA
TAFHVR
TAF AMD
KHVR 250023Z 2500/2524 25015G25KT P6SM SCT150
     FM250300 25014KT P6SM SKC
     FM251900 26020G32KT P6SM SKC=



000
FTUS45 KTFX 242300
TAFCTB
TAF
KCTB 242338Z 2500/2524 24030G45KT P6SM SCT180
     FM250200 25018G30KT P6SM SKC
     FM251800 25028G35KT P6SM SCT180=



000
FTUS45 KTFX 242300
TAFGTF
TAF
KGTF 242338Z 2500/2524 24022G35KT P6SM SKC
     FM250300 23012KT P6SM SKC
     FM251900 25020G32KT P6SM SKC=



000
FTUS45 KTFX 242300
TAFHVR
TAF
KHVR 242338Z 2500/2524 26011KT P6SM SCT150
     FM250300 25014KT P6SM SKC
     FM251900 26020G32KT P6SM SKC=



000
FTUS45 KTFX 242300
TAFLWT
TAF
KLWT 242338Z 2500/2524 31015G32KT P6SM SCT150
     FM250300 24011KT P6SM SKC
     FM252000 27015G25KT P6SM SKC=



000
FTUS45 KTFX 242300
TAFHLN
TAF
KHLN 242338Z 2500/2524 25015G28KT P6SM SKC
     FM250300 25006KT P6SM SKC
     FM252000 27012G22KT P6SM SKC=



000
FTUS45 KTFX 242300
TAFBZN
TAF
KBZN 242338Z 2500/2524 35011KT P6SM SCT180
     FM250200 VRB06KT P6SM SKC
     FM252000 28012KT P6SM SKC=



000
FTUS45 KTFX 242000 AAC
TAFHVR
TAF AMD
KHVR 242002Z 2420/2518 29015G25KT P6SM VCTS SCT080CB BKN120
      TEMPO 2420/2421 VRB30G45KT
     FM242100 28027G37KT P6SM SCT090
     FM250300 25018KT P6SM SKC=



000
FTUS45 KTFX 241900 AAB
TAFHVR
TAF AMD
KHVR 241956Z 2420/2518 29015G25KT P6SM VCTS SCT080CB BKN120
      TEMPO 2420/2421 29030G45KT
     FM242100 28027G37KT P6SM SCT090
     FM250300 25018KT P6SM SKC=



000
FTUS45 KTFX 241900 AAA
TAFHVR
TAF AMD
KHVR 241916Z 2419/2518 27010G20KT P6SM VCTS SCT080CB BKN120
      TEMPO 2419/2421 29020G30KT
     FM242100 28027G37KT P6SM SCT090
     FM250300 25018KT P6SM SKC=



000
FTUS45 KTFX 241900 AAA
TAFHLN
TAF AMD
KHLN 241915Z 2419/2518 27022G32KT P6SM SCT080
     FM250200 26011KT P6SM SKC=



000
FTUS45 KTFX 241700
TAFHVR
TAF
KHVR 241728Z 2418/2518 26010G20KT P6SM VCTS SCT080CB BKN120
      TEMPO 2419/2421 27020G30KT
     FM242100 28027G37KT P6SM SCT090
     FM250300 25018KT P6SM SKC=



000
FTUS45 KTFX 241700
TAFCTB
TAF
KCTB 241728Z 2418/2518 26030G42KT P6SM FEW090
     FM250200 25020G30KT P6SM SKC=



000
FTUS45 KTFX 241700
TAFGTF
TAF
KGTF 241728Z 2418/2518 24015KT P6SM VCTS SCT080CB BKN120
      TEMPO 2418/2420 25020G30KT
     FM242000 25026G36KT P6SM FEW090
     FM250300 23018KT P6SM SKC=



000
FTUS45 KTFX 241700
TAFBZN
TAF
KBZN 241728Z 2418/2518 30011KT P6SM SCT090
      TEMPO 2418/2420 30011G21KT
     FM242000 29018G28KT P6SM VCSH SCT070 BKN100
     FM250200 VRB06KT P6SM SKC=



000
FTUS45 KTFX 241700
TAFHLN
TAF
KHLN 241728Z 2418/2518 30015G25KT P6SM VCSH SCT060 BKN100
     FM242100 28022G32KT P6SM SCT080
     FM250200 26011KT P6SM SKC=



000
FTUS45 KTFX 241700
TAFLWT
TAF
KLWT 241728Z 2418/2518 30011KT P6SM SKC
      TEMPO 2418/2420 30011G21KT
     FM242000 30016KT P6SM VCTS SCT070CB BKN110
      TEMPO 2421/2424 31020G30KT
     FM250000 30015KT P6SM SKC
     FM250300 24011KT P6SM SKC=



000
FTUS45 KTFX 241500 AAA
TAFHVR
TAF AMD
KHVR 241533Z 2416/2512 24011KT P6SM SKC
      TEMPO 2416/2418 27014G24KT
     FM241800 28022G30KT P6SM SCT100
     FM242000 28024G32KT P6SM SKC
     FM250300 26018KT P6SM SKC
     FM250600 24014KT P6SM SKC=



000
FTUS45 KTFX 241100
TAFHVR
TAF
KHVR 241120Z 2412/2512 VRB06KT P6SM SKC
     FM241500 27013KT P6SM SKC
     FM241800 28022G30KT P6SM SCT100
     FM242000 28024G32KT P6SM SKC
     FM250300 26018KT P6SM SKC
     FM250600 24014KT P6SM SKC=



000
FTUS45 KTFX 241100
TAFHLN
TAF
KHLN 241120Z 2412/2512 30008KT P6SM SKC
     FM241500 30008KT P6SM SCT100
     FM241800 28015KT P6SM SKC
     FM242100 27022G30KT P6SM SKC
     FM250500 26008KT P6SM SKC=



000
FTUS45 KTFX 241100
TAFBZN
TAF
KBZN 241120Z 2412/2512 16008KT P6SM SCT120
     FM241400 VRB06KT P6SM SKC
     FM241800 26012KT P6SM SKC
     FM242000 29018KT P6SM SCT090
     FM250200 31008KT P6SM SKC
     FM250400 VRB06KT P6SM SKC=



000
FTUS45 KTFX 241100
TAFGTF
TAF
KGTF 241120Z 2412/2512 26007KT P6SM SKC
     FM241400 24012KT P6SM SCT100
     FM241700 24020KT P6SM SKC
     FM242000 25028G35KT P6SM FEW090
     FM250100 25025KT P6SM SKC
     FM250500 25012KT P6SM SKC=



000
FTUS45 KTFX 241100
TAFLWT
TAF
KLWT 241120Z 2412/2512 14005KT P6SM SCT140
     FM241500 28010KT P6SM SKC
     FM242000 29016KT P6SM VCSH SCT080
     FM250000 29014KT P6SM SKC
     FM250200 29010KT P6SM SKC
     FM250600 25007KT P6SM SKC=



000
FTUS45 KTFX 241100
TAFCTB
TAF
KCTB 241120Z 2412/2512 27015KT P6SM FEW120
     FM241500 25025G32KT P6SM SKC
     FM241800 25032G40KT P6SM FEW090
     FM250300 25018KT P6SM SKC=



000
FTUS45 KTFX 241000 AAA
TAFCTB
TAF AMD
KCTB 241001Z 2410/2506 32007KT P6SM SCT180
     FM241200 27014KT P6SM SCT180
     FM241400 27020G35KT P6SM SCT150
     FM241800 25030G45KT P6SM SKC
     FM250200 24025KT P6SM SCT180=



000
FTUS45 KTFX 241000 AAA
TAFGTF
TAF AMD
KGTF 241000Z 2410/2506 32012KT P6SM SKC
     FM241400 24015KT P6SM SCT120
     FM241900 24025G38KT P6SM SKC
     FM250200 26015KT P6SM SKC=



000
FTUS45 KTFX 240800 AAB
TAFHLN
TAF AMD
KHLN 240800Z 2408/2506 27006KT P6SM SCT150
     FM241900 27018G32KT P6SM SCT070
     FM250200 28012KT P6SM SKC=



000
FTUS45 KTFX 240500 AAA
TAFHLN
TAF AMD
KHLN 240522Z 2405/2506 27012KT P6SM SCT150
     FM241900 27018G32KT P6SM SCT070
     FM250200 28012KT P6SM SKC=



000
FTUS45 KTFX 240500
TAFBZN
TAF
KBZN 240520Z 2406/2506 VRB06KT P6SM SCT180
     FM242100 30012G25KT P6SM SCT090 SCT150
     FM250200 26008KT P6SM SKC=



000
FTUS45 KTFX 240500
TAFHVR
TAF
KHVR 240520Z 2406/2506 VRB06KT P6SM SCT060 BKN150
      TEMPO 2406/2407 VRB20G45KT 5SM TSRAGS BKN050CB
     FM240900 VRB05KT P6SM SKC
     FM241200 24015KT P6SM SKC
     FM241800 27020G35KT P6SM SKC
     FM250200 26010KT P6SM SKC=



000
FTUS45 KTFX 240500
TAFLWT
TAF
KLWT 240520Z 2406/2506 VRB06KT P6SM SKC
     FM241800 30015G28KT P6SM SKC
     FM250200 29006KT P6SM SKC=



000
FTUS45 KTFX 240500
TAFCTB
TAF
KCTB 240520Z 2406/2506 32007KT P6SM SCT180
     FM241000 27020G35KT P6SM SCT150
     FM241800 25030G45KT P6SM SKC
     FM250200 24025KT P6SM SCT180=



000
FTUS45 KTFX 240500
TAFGTF
TAF
KGTF 240520Z 2406/2506 21011KT P6SM SCT050 SCT180
     FM241300 24015KT P6SM SCT120
     FM241900 24025G38KT P6SM SKC
     FM250200 26015KT P6SM SKC=



000
FTUS45 KTFX 240500
TAFHLN
TAF
KHLN 240520Z 2406/2506 29010KT P6SM VCTS SCT090CB BKN150
     FM240900 27012KT P6SM SCT150
     FM241900 27018G32KT P6SM SCT070
     FM250200 28012KT P6SM SKC=



000
FTUS45 KTFX 232300
TAFHLN
TAF
KHLN 232338Z 2400/2424 06011KT P6SM SCT090 SCT150
      TEMPO 2400/2404 VRB25G35KT 5SM TSRA BKN050CB
     FM240400 25008KT P6SM SCT080 SCT150
     FM241200 27012KT P6SM BKN070
     FM241900 27018G32KT P6SM SCT070=



000
FTUS45 KTFX 232300
TAFCTB
TAF
KCTB 232338Z 2400/2424 VRB06KT P6SM SCT180
     FM240200 VRB06KT P6SM SCT080 BKN150
      TEMPO 2402/2406 VRB20G50KT 5SM -TSRA BKN050CB
     FM240600 25012KT P6SM VCTS SCT050CB BKN090
     FM241000 27020G35KT P6SM SCT150
     FM241800 25030G45KT P6SM SKC=



000
FTUS45 KTFX 232300
TAFLWT
TAF
KLWT 232338Z 2400/2424 VRB06KT P6SM BKN180
     FM240200 VRB06KT P6SM VCTS SCT070CB BKN180
     FM240900 VRB06KT P6SM BKN180
     FM241800 30015G28KT P6SM SKC=



000
FTUS45 KTFX 232300
TAFHVR
TAF
KHVR 232338Z 2400/2424 12011KT P6SM SCT100 SCT180
     FM240300 08008KT P6SM SCT090 BKN150
      TEMPO 2403/2407 VRB20G45KT 5SM TSRAGS BKN070CB
     FM240900 VRB05KT P6SM SKC
     FM241200 24015KT P6SM SKC
     FM241800 27020G35KT P6SM SKC=



000
FTUS45 KTFX 232300
TAFBZN
TAF
KBZN 232338Z 2400/2424 06006KT P6SM SCT150
     FM240600 VRB06KT P6SM BKN150
     FM241500 28006KT P6SM SCT150
     FM242100 30012G25KT P6SM SCT090 SCT150=



000
FTUS45 KTFX 232300
TAFGTF
TAF
KGTF 232338Z 2400/2424 VRB06KT P6SM SCT080 SCT180
      TEMPO 2400/2404 VRB20G45KT 5SM -TSRA BKN050CB
     FM241300 24015KT P6SM SCT120
     FM241900 24025G38KT P6SM SKC=



000
FTUS45 KTFX 232000 AAA
TAFHVR
TAF AMD
KHVR 232014Z 2320/2418 10015KT P6SM SKC
     FM240100 11016KT P6SM VCTS SCT080CB BKN150
      TEMPO 2402/2406 VRB30G40KT 3SM +TSRAGS OVC015CB
     FM240900 VRB05KT P6SM SKC
     FM241200 24015KT P6SM SKC=



000
FTUS45 KTFX 231700
TAFBZN
TAF
KBZN 231740Z 2318/2418 19007KT P6SM SCT180
     FM232100 20011KT P6SM VCTS SCT070CB BKN150
     FM240100 VRB06KT P6SM SKC
     FM241200 28010KT P6SM SCT080=



000
FTUS45 KTFX 231700
TAFHLN
TAF
KHLN 231740Z 2318/2418 VRB06KT P6SM SCT100 BKN180
     FM232000 16008KT P6SM VCTS SCT060CB BKN120
      TEMPO 2321/2324 VRB25G35KT 6SM TSRA BKN050CB
     FM240300 25008KT P6SM SKC
     FM240900 27011KT P6SM SCT080
     FM241200 27016KT P6SM BKN070=



000
FTUS45 KTFX 231700
TAFGTF
TAF
KGTF 231740Z 2318/2418 07008KT P6SM SCT180
     FM232200 13008KT P6SM VCTS SCT080CB BKN130
      TEMPO 2323/2402 VRB30G40KT 6SM TSRA BKN060CB
     FM240400 22011KT P6SM SKC
     FM241200 25017G28KT P6SM SKC=



000
FTUS45 KTFX 231700
TAFCTB
TAF
KCTB 231740Z 2318/2418 13008KT P6SM SKC
     FM232200 17011KT P6SM VCTS SCT090CB BKN150
      TEMPO 2401/2404 VRB30G40KT 6SM TSRA BKN070CB
     FM240600 25015G25KT P6SM SKC
     FM241000 26028G42KT P6SM SKC=



000
FTUS45 KTFX 231700
TAFLWT
TAF
KLWT 231740Z 2318/2418 VRB06KT P6SM SKC
     FM232300 13008KT P6SM VCTS SCT080CB BKN150
      TEMPO 2400/2403 VRB30G40KT 6SM TSRA BKN050CB
     FM240400 14008KT P6SM SKC
     FM241200 29015KT P6SM SKC=



000
FTUS45 KTFX 231700
TAFHVR
TAF
KHVR 231740Z 2318/2418 10011KT P6SM SKC
     FM240100 11016KT P6SM VCTS SCT080CB BKN150
      TEMPO 2402/2406 VRB30G40KT 3SM +TSRAGS OVC015CB
     FM240900 VRB05KT P6SM SKC
     FM241200 24015KT P6SM SKC=



000
FTUS45 KTFX 231600 AAA
TAFHVR
TAF AMD
KHVR 231632Z 2317/2412 07008KT P6SM -SHRA VCTS SCT050CB BKN100
     FM231800 11012KT P6SM SCT080
     FM240200 11016KT P6SM SCT080 BKN150
      TEMPO 2402/2406 VRB30G40KT 3SM +TSRAGS OVC015CB
     FM240900 11005KT P6SM SKC=



000
FTUS45 KTFX 231400 AAB
TAFGTF
TAF AMD
KGTF 231409Z 2314/2412 VRB05KT P6SM BKN100
      TEMPO 2314/2315 VRB20G30KT -TSRA BKN050CB
     FM231600 VRB06KT P6SM SKC
     FM232300 16008KT P6SM SCT080 SCT120 BKN250
      TEMPO 2323/2402 VRB30G40KT -TSRA BKN050CB
     FM240200 20010KT P6SM SCT120
     FM240900 23008KT P6SM SKC=



000
FTUS45 KTFX 231200 AAA
TAFGTF
TAF AMD
KGTF 231211Z 2312/2412 VRB05KT P6SM BKN100
      TEMPO 2312/2314 VRB20G30KT -TSRA BKN050CB
     FM231500 VRB06KT P6SM SKC
     FM232300 16008KT P6SM SCT080 SCT120 BKN250
      TEMPO 2323/2402 VRB30G40KT -TSRA BKN050CB
     FM240200 20010KT P6SM SCT120
     FM240900 23008KT P6SM SKC=



000
FTUS45 KTFX 231100
TAFBZN
TAF
KBZN 231124Z 2312/2412 VRB05KT P6SM SCT150
     FM232100 20012KT P6SM SCT100 BKN250
     FM240100 20010KT P6SM SCT100
     FM240600 17005KT P6SM SKC=



000
FTUS45 KTFX 231100
TAFGTF
TAF
KGTF 231124Z 2312/2412 VRB05KT P6SM BKN100
      TEMPO 2312/2315 -SHRA BKN050
     FM231500 VRB06KT P6SM SKC
     FM232300 16008KT P6SM SCT080 SCT120 BKN250
      TEMPO 2323/2402 VRB30G40KT -TSRA BKN050CB
     FM240200 20010KT P6SM SCT120
     FM240900 23008KT P6SM SKC=



000
FTUS45 KTFX 231100
TAFCTB
TAF
KCTB 231124Z 2312/2412 VRB05KT P6SM BKN100
      TEMPO 2312/2315 -SHRA BKN050
     FM231600 16007KT P6SM SKC
     FM232100 17011KT P6SM VCTS SCT080CB
     FM240100 21011KT P6SM SCT080 BKN120
      TEMPO 2401/2404 -TSRA BKN080CB
     FM240400 28008KT P6SM SCT120 BKN250
     FM240900 26015KT P6SM SKC=



000
FTUS45 KTFX 231100
TAFHVR
TAF
KHVR 231124Z 2312/2412 06010KT P6SM SCT250
     FM231500 07008KT P6SM VCSH BKN100
     FM231800 11012KT P6SM SCT080
     FM240200 11016KT P6SM SCT080 BKN150
      TEMPO 2402/2406 VRB30G40KT 3SM +TSRAGS OVC015CB
     FM240900 11005KT P6SM SKC=



000
FTUS45 KTFX 231100
TAFHLN
TAF
KHLN 231124Z 2312/2412 VRB05KT P6SM BKN090
     FM231300 VRB06KT P6SM SCT120 SCT250
     FM232000 19008KT P6SM SCT100 SCT150 BKN250
      TEMPO 2321/2401 VRB25G35KT -TSRA BKN050CB
     FM240100 VRB06KT P6SM SCT100 SCT150
     FM240400 25008KT P6SM SKC=



000
FTUS45 KTFX 231100
TAFLWT
TAF
KLWT 231124Z 2312/2412 12004KT P6SM SCT120 BKN250
     FM231500 11004KT P6SM SKC
     FM232200 11008KT P6SM VCTS SCT080CB
     FM240000 14007KT P6SM SCT080 BKN150
      TEMPO 2400/2403 VRB30G40KT 5SM TSRAGS OVC030CB
     FM240400 14007KT P6SM SKC
     FM241000 21009KT P6SM SKC=



000
FTUS45 KTFX 230800 AAB
TAFHLN
TAF AMD
KHLN 230817Z 2308/2406 VRB06KT P6SM SCT050 SCT090
     FM231200 VRB06KT P6SM SCT050 BKN090
      TEMPO 2312/2315 -TSRA BKN040CB
     FM231500 VRB06KT P6SM SCT150
     FM240000 VRB06KT P6SM SCT090 BKN180 PROB30 2400/2406 VRB20G40KT
      5SM -TSRA BKN050CB=



000
FTUS45 KTFX 230700 AAA
TAFHLN
TAF AMD
KHLN 230710Z 2307/2406 VRB06KT P6SM SCT050 BKN090
      TEMPO 2307/2311 VRB15G40KT 5SM -TSRA BKN040CB
     FM231500 VRB06KT P6SM SCT150
     FM240000 VRB06KT P6SM SCT090 BKN180 PROB30 2400/2406 VRB20G40KT
      5SM -TSRA BKN050CB=



000
FTUS45 KTFX 230600 AAA
TAFGTF
TAF AMD
KGTF 230615Z 2306/2406 08010KT P6SM SCT090 BKN150
     FM231100 22010KT P6SM SCT060 BKN090
      TEMPO 2311/2315 VRB20G40KT 5SM -SHRA BKN050
     FM231800 12006KT P6SM SCT090 SCT150
     FM232200 12006KT P6SM VCTS SCT090CB SCT150 PROB30 2400/2406
      VRB20G45KT 5SM -TSRA BKN050CB=



000
FTUS45 KTFX 230500
TAFCTB
TAF
KCTB 230520Z 2306/2406 VRB06KT P6SM SCT080 BKN180
      TEMPO 2311/2314 VRB20G45KT 5SM -TSRA BKN050CB
     FM231600 14006KT P6SM SCT150
     FM232200 18010KT P6SM VCTS SCT090CB BKN180
      TEMPO 2402/2406 VRB20G45KT 5SM -TSRA BKN050CB=



000
FTUS45 KTFX 230500
TAFGTF
TAF
KGTF 230520Z 2306/2406 08010KT P6SM SCT090 BKN150
      TEMPO 2306/2307 VRB20G45KT 5SM -TSRA BKN045CB
     FM231100 22010KT P6SM SCT060 BKN090
      TEMPO 2311/2315 VRB20G40KT 5SM -SHRA BKN050
     FM231800 12006KT P6SM SCT090 SCT150
     FM232200 12006KT P6SM VCTS SCT090CB SCT150 PROB30 2400/2406
      VRB20G45KT 5SM -TSRA BKN050CB=



000
FTUS45 KTFX 230500
TAFLWT
TAF
KLWT 230520Z 2306/2406 13008KT P6SM SCT100 BKN150
     FM231200 VRB06KT P6SM SCT070 BKN120
     FM232100 06008KT P6SM VCTS SCT070CB BKN180
     FM240200 15005KT P6SM SCT180=



000
FTUS45 KTFX 230500
TAFHVR
TAF
KHVR 230520Z 2306/2406 07008KT P6SM BKN150
     FM231200 08006KT P6SM VCSH SCT070 BKN150 PROB30 2315/2320 5SM
      -SHRA BKN050
     FM232100 09008KT P6SM SCT090 BKN180 PROB30 2403/2406 VRB20G40KT
      5SM -TSRA BKN050CB=



000
FTUS45 KTFX 230500
TAFBZN
TAF
KBZN 230520Z 2306/2406 VRB06KT P6SM SCT150
     FM232000 35006KT P6SM VCTS SCT070CB BKN150
     FM240200 17006KT P6SM SCT180=



000
FTUS45 KTFX 230500
TAFHLN
TAF
KHLN 230520Z 2306/2406 19008KT P6SM SCT070 BKN120
     FM230700 VRB06KT P6SM SCT050 BKN090
      TEMPO 2308/2311 VRB15G40KT 5SM -TSRA BKN040CB
     FM231500 VRB06KT P6SM SCT150
     FM240000 VRB06KT P6SM SCT090 BKN180 PROB30 2400/2406 VRB20G40KT
      5SM -TSRA BKN050CB=



000
FTUS45 KTFX 230300 AAA
TAFGTF
TAF AMD
KGTF 230318Z 2303/2324 08010KT P6SM SCT090 BKN150
      TEMPO 2304/2306 VRB20G45KT 5SM -TSRA BKN045CB
     FM231100 22010KT P6SM SCT060 BKN090
      TEMPO 2311/2315 VRB20G40KT 5SM -SHRA BKN050
     FM231800 12006KT P6SM SCT090 SCT150
     FM232200 12006KT P6SM VCTS SCT090CB SCT150=



000
FTUS45 KTFX 222300
TAFGTF
TAF
KGTF 222336Z 2300/2324 06011KT P6SM SCT090 BKN150
      TEMPO 2300/2303 VRB20G45KT 5SM -TSRA BKN045CB
     FM231100 22010KT P6SM SCT060 BKN090
      TEMPO 2311/2315 VRB20G40KT 5SM -SHRA BKN050
     FM231800 12006KT P6SM SCT090 SCT150
     FM232200 12006KT P6SM VCTS SCT090CB SCT150=



000
FTUS45 KTFX 222300
TAFCTB
TAF
KCTB 222336Z 2300/2324 VRB06KT P6SM VCTS SCT090CB SCT150
     FM230300 24006KT P6SM SCT150
     FM231100 26006KT P6SM SCT070 BKN150
      TEMPO 2311/2314 VRB20G45KT 5SM -TSRA BKN050CB
     FM231600 20008KT P6SM SCT150
     FM232200 18010KT P6SM VCTS SCT090CB BKN180=



000
FTUS45 KTFX 222300
TAFBZN
TAF
KBZN 222336Z 2300/2324 25006KT P6SM SCT050 OVC090
      TEMPO 2300/2303 VRB20G45KT 5SM -TSRA BKN040CB
     FM230300 VRB05KT P6SM SCT120 BKN180
     FM230800 VRB05KT P6SM FEW120
     FM232000 35006KT P6SM VCTS SCT070CB BKN150=



000
FTUS45 KTFX 222300
TAFHVR
TAF
KHVR 222336Z 2300/2324 VRB06KT P6SM SCT090 BKN150
     FM231200 08006KT P6SM VCSH SCT070 BKN150
     FM231600 08006KT P6SM SCT150
     FM232100 09008KT P6SM SCT090 BKN180=



000
FTUS45 KTFX 222300
TAFHLN
TAF
KHLN 222336Z 2300/2324 11008KT P6SM SCT070 BKN150
      TEMPO 2300/2304 VRB20G45KT 5SM -TSRA BKN045CB
     FM230700 VRB06KT P6SM SCT050 BKN090
      TEMPO 2307/2311 VRB15G40KT 5SM -TSRA BKN040CB
     FM231500 VRB06KT P6SM SCT150=



000
FTUS45 KTFX 222300
TAFLWT
TAF
KLWT 222336Z 2300/2324 06011KT P6SM SCT070 BKN150
      TEMPO 2300/2304 VRB20G45KT 5SM -TSRA BKN040CB
     FM231200 VRB06KT P6SM SCT070 BKN120 PROB30 2313/2318 6SM -SHRA
      BKN060
     FM232100 06008KT P6SM VCTS SCT070CB BKN180=



    US Dept of Commerce
    National Oceanic and Atmospheric Administration
    National Weather Service
    1325 East West Highway
    Silver Spring, MD 20910
    Page Author: NWS Internet Services Team
Disclaimer
Information Quality
Credits
Glossary
Privacy Policy
Freedom of Information Act (FOIA)
About Us
Career Opportunities